Time;durP1;ratioP1;P1;durP2;ratioP2;P2;SDS_P1;SDS_P2;PMS_P1;PMS_P2;Temp;Humidity;BMP_temperature;BMP_pressure;BME280_temperature;BME280_humidity;BME280_pressure;Samples;Min_cycle;Max_cycle;Signal;HPM_P1;HPM_P2
2022/09/04 00:01:16;;;;;;;120.27;9.30;;;15.60;99.90;;;;;;5028301;28;20437;-76
2022/09/04 00:03:54;;;;;;;57.40;7.83;;;15.50;99.90;;;;;;5028809;28;20411;-76
2022/09/04 00:06:25;;;;;;;7.80;6.80;;;15.40;99.90;;;;;;5027525;28;20462;-76
2022/09/04 00:09:23;;;;;;;14.97;5.77;;;15.50;99.90;;;;;;5028995;28;20413;-76
2022/09/04 00:12:07;;;;;;;6.57;5.77;;;15.50;99.90;;;;;;5005696;28;20453;-76
2022/09/04 00:14:44;;;;;;;9.77;5.40;;;15.40;99.90;;;;;;5029101;28;20427;-76
2022/09/04 00:17:27;;;;;;;7.73;5.70;;;15.50;99.90;;;;;;5027816;28;20462;-77
2022/09/04 00:20:07;;;;;;;5.97;5.07;;;15.40;99.90;;;;;;5029259;28;20907;-76
2022/09/04 00:22:56;;;;;;;7.27;5.43;;;15.40;99.90;;;;;;5050851;28;20416;-76
2022/09/04 00:25:31;;;;;;;6.10;5.50;;;15.30;99.90;;;;;;5054534;28;20412;-77
2022/09/04 00:28:19;;;;;;;13.43;5.87;;;15.40;99.90;;;;;;5054764;28;20442;-77
2022/09/04 00:30:54;;;;;;;12.53;6.10;;;15.30;99.90;;;;;;5048209;28;20551;-76
2022/09/04 00:33:35;;;;;;;9.93;6.83;;;15.30;99.90;;;;;;5030676;28;20419;-75
2022/09/04 00:36:03;;;;;;;17.90;7.40;;;15.20;99.90;;;;;;5029492;28;20447;-75
2022/09/04 00:38:43;;;;;;;7.73;6.07;;;15.20;99.90;;;;;;5029139;28;20425;-75
2022/09/04 00:41:31;;;;;;;5.73;5.13;;;15.10;99.90;;;;;;5029293;28;20442;-74
2022/09/04 00:44:25;;;;;;;5.93;5.20;;;15.00;99.90;;;;;;5029684;28;20919;-75
2022/09/04 00:47:20;;;;;;;6.00;5.40;;;15.10;99.90;;;;;;5029353;28;20425;-75
2022/09/04 00:50:05;;;;;;;4.87;4.30;;;15.00;99.90;;;;;;5029231;28;21160;-75
2022/09/04 00:52:53;;;;;;;6.40;5.07;;;15.00;99.90;;;;;;5028645;28;20415;-75
2022/09/04 00:55:24;;;;;;;4.20;3.80;;;15.00;99.90;;;;;;5028583;28;20929;-75
2022/09/04 00:58:09;;;;;;;6.40;4.90;;;15.00;99.90;;;;;;5027135;28;20514;-75
2022/09/04 01:00:35;;;;;;;7.23;4.80;;;14.90;99.90;;;;;;5028535;28;20461;-75
2022/09/04 01:03:15;;;;;;;6.03;4.23;;;14.80;99.90;;;;;;5028669;28;20420;-75
2022/09/04 01:06:02;;;;;;;4.40;3.97;;;14.70;99.90;;;;;;5028542;28;20427;-75
2022/09/04 01:08:55;;;;;;;8.13;3.27;;;14.60;99.90;;;;;;5028344;28;20454;-75
2022/09/04 01:11:43;;;;;;;6.73;3.47;;;14.70;99.90;;;;;;5027047;28;20447;-75
2022/09/04 01:14:39;;;;;;;9.00;3.70;;;14.80;99.90;;;;;;5032123;28;20470;-75
2022/09/04 01:17:28;;;;;;;4.40;3.47;;;14.80;99.90;;;;;;5030738;28;21318;-75
2022/09/04 01:20:19;;;;;;;4.60;3.43;;;14.60;99.90;;;;;;5032203;28;20502;-75
2022/09/04 01:22:51;;;;;;;3.43;3.13;;;14.50;99.90;;;;;;5031982;28;20407;-75
2022/09/04 01:25:28;;;;;;;10.73;4.20;;;14.50;99.90;;;;;;5032042;28;20412;-75
2022/09/04 01:28:24;;;;;;;7.00;3.70;;;14.50;99.90;;;;;;5030769;28;20419;-75
2022/09/04 01:31:27;;;;;;;6.23;3.67;;;14.60;99.90;;;;;;5032200;28;20434;-75
2022/09/04 01:34:16;;;;;;;5.93;4.27;;;14.70;99.90;;;;;;5032289;28;20425;-76
2022/09/04 01:36:52;;;;;;;4.73;3.00;;;14.80;99.90;;;;;;5032282;28;20455;-76
2022/09/04 01:39:21;;;;;;;5.57;3.40;;;14.80;99.90;;;;;;5030772;28;20429;-75
2022/09/04 01:42:00;;;;;;;3.80;3.47;;;14.80;99.90;;;;;;5032103;28;21254;-75
2022/09/04 01:44:26;;;;;;;3.73;3.43;;;14.90;99.90;;;;;;5032111;28;20422;-75
2022/09/04 01:47:24;;;;;;;10.13;3.80;;;14.90;99.90;;;;;;5032359;28;20420;-75
2022/09/04 01:50:02;;;;;;;3.33;3.03;;;14.90;99.90;;;;;;5032515;28;20203;-75
2022/09/04 01:52:47;;;;;;;5.20;2.90;;;15.00;99.90;;;;;;5032708;28;20399;-75
2022/09/04 01:55:32;;;;;;;4.83;3.43;;;14.90;99.90;;;;;;5032479;28;20422;-74
2022/09/04 01:58:04;;;;;;;4.00;3.00;;;14.90;99.90;;;;;;5032320;28;20962;-75
2022/09/04 02:00:54;;;;;;;3.90;3.50;;;14.90;99.90;;;;;;5032403;28;20428;-74
2022/09/04 02:03:39;;;;;;;4.23;2.77;;;14.90;99.90;;;;;;5032554;28;20515;-74
2022/09/04 02:06:25;;;;;;;6.10;3.37;;;15.00;99.90;;;;;;5032480;28;20421;-74
2022/09/04 02:09:28;;;;;;;3.67;3.00;;;14.90;99.90;;;;;;5032598;28;20465;-75
2022/09/04 02:12:21;;;;;;;6.00;3.03;;;14.90;99.90;;;;;;5033104;28;20527;-75
2022/09/04 02:15:15;;;;;;;9.27;3.20;;;14.90;99.90;;;;;;5030982;28;20426;-75
2022/09/04 02:17:54;;;;;;;7.33;3.33;;;14.70;99.90;;;;;;5032023;28;20479;-74
2022/09/04 02:20:26;;;;;;;3.67;3.03;;;14.70;99.90;;;;;;5032050;28;20834;-75
2022/09/04 02:23:01;;;;;;;4.70;3.30;;;14.80;99.90;;;;;;5030353;28;20489;-75
2022/09/04 02:25:52;;;;;;;4.00;3.27;;;14.90;99.90;;;;;;5029978;28;20498;-74
2022/09/04 02:28:26;;;;;;;3.97;3.10;;;14.90;99.90;;;;;;5031380;28;20427;-74
2022/09/04 02:31:01;;;;;;;3.07;2.77;;;14.90;99.90;;;;;;5029638;28;20510;-74
2022/09/04 02:34:11;;;;;;;4.00;3.60;;;14.90;99.90;;;;;;5030730;28;20427;-75
2022/09/04 02:37:15;;;;;;;4.30;3.40;;;14.90;99.90;;;;;;5022592;28;20474;-74
2022/09/04 02:39:57;;;;;;;4.50;3.13;;;14.90;99.90;;;;;;5024709;28;20465;-75
2022/09/04 02:42:49;;;;;;;4.17;3.10;;;14.90;99.90;;;;;;5029315;28;20429;-74
2022/09/04 02:45:33;;;;;;;8.43;3.40;;;14.90;99.90;;;;;;5030714;28;20420;-75
2022/09/04 02:48:19;;;;;;;3.23;2.93;;;14.80;99.90;;;;;;5030654;28;20431;-76
2022/09/04 02:51:18;;;;;;;5.80;3.10;;;14.80;99.90;;;;;;5030580;28;20471;-76
2022/09/04 02:54:15;;;;;;;4.70;3.60;;;14.80;99.90;;;;;;5030618;28;20419;-75
2022/09/04 02:56:58;;;;;;;3.43;3.13;;;14.70;99.90;;;;;;5026600;28;20467;-76
2022/09/04 02:59:47;;;;;;;3.93;3.57;;;14.70;99.90;;;;;;5030703;28;20500;-75
2022/09/04 03:02:50;;;;;;;4.43;3.40;;;14.60;99.90;;;;;;5030739;28;20550;-75
2022/09/04 03:05:27;;;;;;;3.67;3.37;;;14.60;99.90;;;;;;5007567;28;20842;-75
2022/09/04 03:08:17;;;;;;;5.80;3.37;;;14.50;99.90;;;;;;5028833;28;20455;-75
2022/09/04 03:10:47;;;;;;;5.43;3.30;;;14.50;99.90;;;;;;5028981;28;20984;-75
2022/09/04 03:13:29;;;;;;;6.73;3.30;;;14.50;99.90;;;;;;5028583;28;20451;-75
2022/09/04 03:16:19;;;;;;;6.73;3.07;;;14.40;99.90;;;;;;5028971;28;20945;-75
2022/09/04 03:18:57;;;;;;;3.17;2.73;;;14.40;99.90;;;;;;5029101;28;20876;-75
2022/09/04 03:21:34;;;;;;;6.00;3.53;;;14.40;99.90;;;;;;5030206;28;20463;-74
2022/09/04 03:24:12;;;;;;;3.20;2.87;;;14.40;99.90;;;;;;5030290;28;20445;-74
2022/09/04 03:27:00;;;;;;;4.93;2.93;;;14.40;99.90;;;;;;5030108;28;20416;-74
2022/09/04 03:29:40;;;;;;;4.70;3.07;;;14.40;99.90;;;;;;5030297;28;20419;-74
2022/09/04 03:32:27;;;;;;;6.83;2.70;;;14.40;99.90;;;;;;5030075;28;20805;-74
2022/09/04 03:35:02;;;;;;;3.50;3.10;;;14.40;99.90;;;;;;5029644;28;20431;-74
2022/09/04 03:37:36;;;;;;;5.03;3.20;;;14.40;99.90;;;;;;5029698;28;20461;-74
2022/09/04 03:40:37;;;;;;;7.63;3.40;;;14.40;99.90;;;;;;5030098;28;20419;-74
2022/09/04 03:43:29;;;;;;;3.83;3.27;;;14.40;99.90;;;;;;5030106;28;20421;-74
2022/09/04 03:46:07;;;;;;;6.33;3.27;;;14.30;99.90;;;;;;5030037;28;20497;-74
2022/09/04 03:48:50;;;;;;;5.67;3.53;;;14.20;99.90;;;;;;5028490;28;20875;-74
2022/09/04 03:51:37;;;;;;;6.07;3.70;;;14.10;99.90;;;;;;5029593;28;20442;-74
2022/09/04 03:54:17;;;;;;;3.23;2.77;;;14.10;99.90;;;;;;5029886;28;20418;-74
2022/09/04 03:56:52;;;;;;;3.40;3.10;;;14.00;99.90;;;;;;5029779;28;20562;-75
2022/09/04 03:59:47;;;;;;;3.53;2.80;;;14.10;99.90;;;;;;5028300;28;20427;-74
2022/09/04 04:02:24;;;;;;;3.20;2.87;;;14.20;99.90;;;;;;5029576;28;20850;-75
2022/09/04 04:05:22;;;;;;;5.20;2.90;;;14.20;99.90;;;;;;5029847;28;20459;-75
2022/09/04 04:08:15;;;;;;;3.10;2.80;;;14.20;99.90;;;;;;5006364;28;20436;-75
2022/09/04 04:11:23;;;;;;;8.47;3.67;;;14.20;99.90;;;;;;5029296;28;20448;-75
2022/09/04 04:14:13;;;;;;;4.93;3.37;;;14.30;99.90;;;;;;5029226;28;21007;-76
2022/09/04 04:17:08;;;;;;;3.77;2.90;;;14.30;99.90;;;;;;5027720;28;20470;-78
2022/09/04 04:19:50;;;;;;;3.30;3.00;;;14.20;99.90;;;;;;5020367;28;20929;-76
2022/09/04 04:22:33;;;;;;;3.60;2.87;;;14.30;99.90;;;;;;5027534;28;20439;-76
2022/09/04 04:25:10;;;;;;;3.83;3.47;;;14.20;99.90;;;;;;5028870;28;20425;-76
2022/09/04 04:28:06;;;;;;;7.10;3.37;;;14.20;99.90;;;;;;5029448;28;20457;-77
2022/09/04 04:30:53;;;;;;;11.83;5.60;;;14.10;99.90;;;;;;5029429;28;20440;-77
2022/09/04 04:33:25;;;;;;;6.33;3.97;;;14.10;99.90;;;;;;5029640;28;20920;-78
2022/09/04 04:35:59;;;;;;;4.03;3.63;;;14.20;99.90;;;;;;5029451;28;20434;-77
2022/09/04 04:38:40;;;;;;;6.40;3.40;;;14.30;99.90;;;;;;5029638;28;20430;-77
2022/09/04 04:41:13;;;;;;;6.60;3.90;;;14.30;99.90;;;;;;5028155;28;20458;-77
2022/09/04 04:44:15;;;;;;;4.10;3.80;;;14.40;99.90;;;;;;5030222;28;20765;-78
2022/09/04 04:46:49;;;;;;;3.70;3.40;;;14.40;99.90;;;;;;5030015;28;20414;-77
2022/09/04 04:49:26;;;;;;;6.50;3.80;;;14.30;99.90;;;;;;5033338;28;20970;-77
2022/09/04 04:52:08;;;;;;;3.80;3.50;;;14.40;99.90;;;;;;5033271;28;20526;-77
2022/09/04 04:55:04;;;;;;;3.60;3.03;;;14.50;99.90;;;;;;5033534;28;20757;-77
2022/09/04 04:57:53;;;;;;;3.77;3.47;;;14.60;99.90;;;;;;5033217;28;20947;-78
2022/09/04 05:00:31;;;;;;;3.97;3.40;;;14.70;99.90;;;;;;5033157;28;20569;-78
2022/09/04 05:03:19;;;;;;;4.27;3.10;;;14.80;99.90;;;;;;5031897;28;20884;-79
2022/09/04 05:05:56;;;;;;;3.77;3.17;;;15.00;99.90;;;;;;5031844;28;20478;-80
2022/09/04 05:08:46;;;;;;;4.40;3.80;;;14.90;99.90;;;;;;5032746;28;20425;-78
2022/09/04 05:11:21;;;;;;;3.77;3.40;;;14.90;99.90;;;;;;5032793;28;20946;-80
2022/09/04 05:14:23;;;;;;;5.47;4.17;;;14.80;99.90;;;;;;5032726;28;20445;-80
2022/09/04 05:17:27;;;;;;;4.13;3.83;;;14.70;99.90;;;;;;5030860;28;20463;-78
2022/09/04 05:20:17;;;;;;;3.50;3.20;;;14.70;99.90;;;;;;5030457;28;21004;-80
2022/09/04 05:22:45;;;;;;;4.30;3.90;;;14.60;99.90;;;;;;5031953;28;20415;-79
2022/09/04 05:25:30;;;;;;;3.80;3.50;;;14.60;99.90;;;;;;5031747;28;20415;-80
2022/09/04 05:28:25;;;;;;;3.60;3.30;;;14.60;99.90;;;;;;5030489;28;20429;-79
2022/09/04 05:31:06;;;;;;;3.90;3.50;;;14.60;99.90;;;;;;5032003;28;20496;-79
2022/09/04 05:33:41;;;;;;;4.07;3.77;;;14.60;99.90;;;;;;5031856;28;20424;-77
2022/09/04 05:36:09;;;;;;;4.27;3.83;;;14.60;99.90;;;;;;5032243;28;20427;-77
2022/09/04 05:38:55;;;;;;;4.87;3.60;;;14.70;99.90;;;;;;5032278;28;20415;-77
2022/09/04 05:41:58;;;;;;;3.60;3.30;;;14.70;99.90;;;;;;5030081;28;20454;-77
2022/09/04 05:44:32;;;;;;;3.97;3.67;;;14.90;99.90;;;;;;5015622;28;20451;-77
2022/09/04 05:47:08;;;;;;;12.80;4.40;;;15.00;99.90;;;;;;5030672;28;20443;-77
2022/09/04 05:50:09;;;;;;;5.97;3.97;;;15.20;99.90;;;;;;5032153;28;20510;-77
2022/09/04 05:52:46;;;;;;;3.63;3.30;;;15.20;99.90;;;;;;5033346;28;20422;-77
2022/09/04 05:55:15;;;;;;;9.43;3.57;;;15.30;99.90;;;;;;5031917;28;20432;-77
2022/09/04 05:57:46;;;;;;;5.90;4.43;;;15.40;99.90;;;;;;5032411;28;20475;-77
2022/09/04 06:00:17;;;;;;;4.53;3.97;;;15.40;99.90;;;;;;5029290;28;20527;-77
2022/09/04 06:03:15;;;;;;;6.30;4.30;;;15.40;99.90;;;;;;5031642;28;20427;-77
2022/09/04 06:05:55;;;;;;;4.40;3.90;;;15.50;99.90;;;;;;5030085;28;21106;-77
2022/09/04 06:09:00;;;;;;;8.97;4.10;;;15.60;99.90;;;;;;5031703;28;20502;-76
2022/09/04 06:11:34;;;;;;;8.53;4.10;;;15.70;99.90;;;;;;5015579;28;20820;-77
2022/09/04 06:14:12;;;;;;;3.40;2.90;;;15.80;99.90;;;;;;5031621;28;20513;-76
2022/09/04 06:17:06;;;;;;;3.60;3.30;;;16.00;99.90;;;;;;5031293;28;20468;-76
2022/09/04 06:19:34;;;;;;;9.00;3.70;;;16.30;99.90;;;;;;5029818;28;20421;-76
2022/09/04 06:22:22;;;;;;;3.87;3.50;;;16.60;99.90;;;;;;5031274;28;20432;-76
2022/09/04 06:25:00;;;;;;;5.90;3.03;;;16.90;99.90;;;;;;5030122;28;20907;-76
2022/09/04 06:27:47;;;;;;;4.80;2.90;;;17.40;99.90;;;;;;5031430;28;20422;-76
2022/09/04 06:30:15;;;;;;;2.90;2.70;;;17.70;99.90;;;;;;5031505;28;20501;-76
2022/09/04 06:33:21;;;;;;;2.77;2.57;;;18.10;99.90;;;;;;5031114;28;20799;-75
2022/09/04 06:36:18;;;;;;;2.83;2.60;;;18.30;99.90;;;;;;5029731;28;20527;-76
2022/09/04 06:38:58;;;;;;;5.07;3.03;;;18.50;99.90;;;;;;5030267;28;20430;-76
2022/09/04 06:41:59;;;;;;;3.60;3.03;;;18.50;99.90;;;;;;5031363;28;20503;-76
2022/09/04 06:45:01;;;;;;;5.07;3.00;;;18.60;99.90;;;;;;5031519;28;20411;-76
2022/09/04 06:47:40;;;;;;;11.47;3.40;;;18.30;99.90;;;;;;5030980;28;20445;-75
2022/09/04 06:50:28;;;;;;;7.93;3.50;;;18.00;99.90;;;;;;5029284;28;20781;-75
2022/09/04 06:52:54;;;;;;;5.80;3.13;;;17.70;99.90;;;;;;5031071;28;20512;-75
2022/09/04 06:55:27;;;;;;;7.50;3.60;;;17.60;99.90;;;;;;5031050;28;20499;-76
2022/09/04 06:57:59;;;;;;;3.93;3.60;;;17.50;99.90;;;;;;5030831;28;20560;-76
2022/09/04 07:00:29;;;;;;;4.03;3.63;;;17.40;99.90;;;;;;5030704;28;20434;-76
2022/09/04 07:03:13;;;;;;;5.23;3.27;;;17.40;99.90;;;;;;5030870;28;20424;-76
2022/09/04 07:05:45;;;;;;;9.40;4.30;;;17.40;99.90;;;;;;5030366;28;20504;-76
2022/09/04 07:08:16;;;;;;;7.03;4.20;;;17.40;99.90;;;;;;5029964;28;20426;-76
2022/09/04 07:11:27;;;;;;;5.33;3.13;;;17.40;99.90;;;;;;5029736;28;20457;-76
2022/09/04 07:14:20;;;;;;;4.70;3.33;;;17.40;99.90;;;;;;4998056;28;20957;-76
2022/09/04 07:17:17;;;;;;;3.57;3.20;;;17.40;99.90;;;;;;5033076;28;20552;-75
2022/09/04 07:20:06;;;;;;;5.23;2.80;;;17.50;99.90;;;;;;5032491;28;21099;-76
2022/09/04 07:22:41;;;;;;;3.33;3.00;;;17.50;99.90;;;;;;5032304;28;20902;-75
2022/09/04 07:25:26;;;;;;;3.47;3.17;;;17.60;99.90;;;;;;5032433;28;20421;-76
2022/09/04 07:28:08;;;;;;;2.83;2.63;;;17.70;99.90;;;;;;5031627;28;20423;-75
2022/09/04 07:30:48;;;;;;;6.53;3.03;;;17.80;99.90;;;;;;5031297;28;20445;-76
2022/09/04 07:33:57;;;;;;;3.60;2.53;;;17.90;99.90;;;;;;5031737;28;20418;-75
2022/09/04 07:36:47;;;;;;;2.87;2.67;;;18.00;99.90;;;;;;4998538;28;20486;-74
2022/09/04 07:39:31;;;;;;;3.67;3.00;;;18.10;99.90;;;;;;5053312;28;20410;-74
2022/09/04 07:42:08;;;;;;;3.07;2.87;;;18.20;99.90;;;;;;5037637;28;20482;-76
2022/09/04 07:44:46;;;;;;;4.93;2.90;;;18.30;99.90;;;;;;5031298;28;20417;-75
2022/09/04 07:47:42;;;;;;;3.77;2.80;;;18.30;99.90;;;;;;5032893;28;20407;-76
2022/09/04 07:50:22;;;;;;;2.90;2.70;;;18.50;99.90;;;;;;5028607;28;20447;-77
2022/09/04 07:53:00;;;;;;;5.00;2.50;;;18.60;99.90;;;;;;5026592;28;21212;-77
2022/09/04 07:55:40;;;;;;;5.10;2.90;;;18.70;99.90;;;;;;5028146;28;20421;-77
2022/09/04 07:58:44;;;;;;;3.53;2.80;;;18.80;99.90;;;;;;5028029;28;20466;-77
2022/09/04 08:02:04;;;;;;;5.83;2.50;;;18.90;99.90;;;;;;5026514;28;20499;-77
2022/09/04 08:04:33;;;;;;;5.13;2.57;;;19.00;99.90;;;;;;5011401;28;20430;-77
2022/09/04 08:07:04;;;;;;;2.30;2.10;;;19.20;99.90;;;;;;5026673;28;20504;-78
2022/09/04 08:09:57;;;;;;;6.20;2.80;;;19.30;99.90;;;;;;5027090;28;20427;-77
2022/09/04 08:12:37;;;;;;;3.33;3.00;;;19.40;99.90;;;;;;5027927;28;20453;-77
2022/09/04 08:15:22;;;;;;;3.03;2.20;;;19.50;99.90;;;;;;5028444;28;20790;-77
2022/09/04 08:18:02;;;;;;;2.77;2.33;;;19.60;99.90;;;;;;5028740;28;20498;-77
2022/09/04 08:20:31;;;;;;;2.50;2.30;;;19.70;99.90;;;;;;5028702;28;21049;-77
2022/09/04 08:23:15;;;;;;;3.20;2.50;;;19.80;99.90;;;;;;5028240;28;20531;-77
2022/09/04 08:25:56;;;;;;;5.30;2.50;;;20.00;99.90;;;;;;5027548;28;20810;-76
2022/09/04 08:28:33;;;;;;;4.63;2.57;;;20.00;99.90;;;;;;5029397;28;20504;-77
2022/09/04 08:31:09;;;;;;;2.90;2.63;;;20.20;99.90;;;;;;5027218;28;20510;-77
2022/09/04 08:33:42;;;;;;;2.00;1.80;;;20.40;99.90;;;;;;5028218;28;20457;-77
2022/09/04 08:36:24;;;;;;;4.60;1.83;;;20.40;99.90;;;;;;5026746;28;20810;-78
2022/09/04 08:39:12;;;;;;;2.87;2.00;;;20.60;99.90;;;;;;5026939;28;20420;-77
2022/09/04 08:42:03;;;;;;;2.43;1.73;;;20.70;99.90;;;;;;5028548;28;20441;-77
2022/09/04 08:44:42;;;;;;;3.17;1.77;;;20.70;99.90;;;;;;5028484;28;20513;-77
2022/09/04 08:47:43;;;;;;;1.93;1.83;;;20.80;99.90;;;;;;5028793;28;20415;-78
2022/09/04 08:50:28;;;;;;;1.73;1.63;;;21.00;99.90;;;;;;5028117;28;20645;-77
2022/09/04 08:53:28;;;;;;;3.03;1.83;;;21.20;99.90;;;;;;5028261;28;20415;-77
2022/09/04 08:56:05;;;;;;;3.33;1.40;;;21.50;99.90;;;;;;5028246;28;20420;-77
2022/09/04 08:58:30;;;;;;;2.07;1.10;;;21.60;99.90;;;;;;5030109;28;20495;-80
2022/09/04 09:01:27;;;;;;;2.17;1.50;;;21.90;99.90;;;;;;5030930;28;20916;-78
2022/09/04 09:04:02;;;;;;;3.77;1.87;;;22.20;99.90;;;;;;5030311;28;20231;-77
2022/09/04 09:06:46;;;;;;;15.03;2.17;;;22.40;99.90;;;;;;5028198;28;20475;-77
2022/09/04 09:09:48;;;;;;;1.87;1.40;;;22.60;99.90;;;;;;5027633;28;20739;-77
2022/09/04 09:12:35;;;;;;;1.93;1.73;;;22.60;99.90;;;;;;5025921;28;20476;-77
2022/09/04 09:15:29;;;;;;;3.33;1.80;;;22.80;99.90;;;;;;5027297;28;20507;-77
2022/09/04 09:18:23;;;;;;;1.40;1.10;;;23.10;99.90;;;;;;5025759;28;20960;-76
2022/09/04 09:21:04;;;;;;;1.40;1.30;;;23.40;99.90;;;;;;5027130;28;20432;-77
2022/09/04 09:23:55;;;;;;;2.30;1.70;;;23.60;99.90;;;;;;5026994;28;20424;-76
2022/09/04 09:26:29;;;;;;;1.87;1.50;;;24.00;99.90;;;;;;5026962;28;20508;-76
2022/09/04 09:28:55;;;;;;;2.50;1.40;;;24.40;99.90;;;;;;5027358;28;20609;-76
2022/09/04 09:31:49;;;;;;;1.67;1.57;;;24.50;99.90;;;;;;5027017;28;20537;-76
2022/09/04 09:34:26;;;;;;;1.70;1.37;;;24.80;99.90;;;;;;5027089;28;20195;-77
2022/09/04 09:37:24;;;;;;;1.50;1.40;;;25.30;99.90;;;;;;5030670;28;20467;-77
2022/09/04 09:40:11;;;;;;;3.07;1.73;;;25.80;99.90;;;;;;5031439;28;20422;-78
2022/09/04 09:42:42;;;;;;;7.33;1.30;;;26.20;99.90;;;;;;5031259;28;20415;-77
2022/09/04 09:45:34;;;;;;;1.57;1.27;;;26.50;99.90;;;;;;5032098;28;20428;-78
2022/09/04 09:48:37;;;;;;;2.70;1.60;;;26.80;99.90;;;;;;5029858;28;20503;-76
2022/09/04 09:51:12;;;;;;;3.47;1.30;;;27.00;99.90;;;;;;5030681;28;21193;-77
2022/09/04 09:54:11;;;;;;;3.63;1.00;;;27.20;98.30;;;;;;5030393;28;20928;-78
2022/09/04 09:56:57;;;;;;;2.00;1.00;;;27.60;98.40;;;;;;5028886;28;20524;-78
2022/09/04 09:59:44;;;;;;;1.70;0.90;;;28.00;97.70;;;;;;5030777;28;20423;-77
2022/09/04 10:02:47;;;;;;;1.20;1.10;;;27.10;96.60;;;;;;5028901;28;20450;-77
2022/09/04 10:05:38;;;;;;;2.90;1.20;;;26.50;97.40;;;;;;5030599;28;20447;-78
2022/09/04 10:08:35;;;;;;;2.00;1.10;;;26.70;98.30;;;;;;5030636;28;20423;-78
2022/09/04 10:11:22;;;;;;;1.77;1.30;;;26.80;97.40;;;;;;5028494;28;20458;-78
2022/09/04 10:14:06;;;;;;;1.57;1.00;;;26.40;98.30;;;;;;5029804;28;20448;-78
2022/09/04 10:16:45;;;;;;;2.73;1.30;;;26.40;99.10;;;;;;5031518;28;20458;-80
2022/09/04 10:19:29;;;;;;;2.43;1.30;;;26.90;98.50;;;;;;5028903;28;20466;-77
2022/09/04 10:22:11;;;;;;;1.73;1.30;;;26.80;97.10;;;;;;5029605;28;20435;-77
2022/09/04 10:24:42;;;;;;;1.37;1.13;;;26.70;97.10;;;;;;5029872;28;20442;-78
2022/09/04 10:27:08;;;;;;;1.13;1.03;;;26.80;98.40;;;;;;5029696;28;20435;-76
2022/09/04 10:30:03;;;;;;;1.40;1.30;;;27.20;97.70;;;;;;5027981;28;20445;-78
2022/09/04 10:32:50;;;;;;;1.03;0.93;;;26.70;95.80;;;;;;5025167;28;20302;-76
2022/09/04 10:35:18;;;;;;;2.53;1.40;;;26.70;98.20;;;;;;5027791;28;20432;-76
2022/09/04 10:38:13;;;;;;;3.57;1.10;;;26.80;97.80;;;;;;5027476;28;20466;-76
2022/09/04 10:41:22;;;;;;;1.67;1.00;;;26.90;97.10;;;;;;5030044;28;20470;-78
2022/09/04 10:44:40;;;;;;;3.90;1.13;;;27.00;95.30;;;;;;5027439;28;20422;-76
2022/09/04 10:47:27;;;;;;;2.20;1.20;;;27.10;95.90;;;;;;4991759;28;20421;-77
2022/09/04 10:50:29;;;;;;;2.80;1.23;;;27.00;96.20;;;;;;5028992;28;20410;-76
2022/09/04 10:53:23;;;;;;;1.30;1.20;;;26.80;95.60;;;;;;5029534;28;20411;-78
2022/09/04 10:56:01;;;;;;;2.30;1.17;;;27.20;96.80;;;;;;5028954;28;20418;-76
2022/09/04 10:59:04;;;;;;;1.37;0.80;;;27.40;95.90;;;;;;5027779;28;20473;-77
2022/09/04 11:01:56;;;;;;;2.73;1.20;;;28.00;93.60;;;;;;5027445;28;20481;-76
2022/09/04 11:04:59;;;;;;;3.73;1.50;;;28.10;91.70;;;;;;5028672;28;20403;-76
2022/09/04 11:07:31;;;;;;;1.13;0.83;;;27.90;90.30;;;;;;5028775;28;20419;-77
2022/09/04 11:10:18;;;;;;;3.73;1.20;;;27.20;92.10;;;;;;5026944;28;20430;-75
2022/09/04 11:13:02;;;;;;;1.90;1.37;;;26.90;94.10;;;;;;5028711;28;20857;-76
2022/09/04 11:16:00;;;;;;;1.37;1.13;;;27.50;91.70;;;;;;5028521;28;20484;-78
2022/09/04 11:18:57;;;;;;;1.63;1.20;;;28.10;91.50;;;;;;5013177;28;20485;-78
2022/09/04 11:21:44;;;;;;;2.40;1.10;;;28.20;90.10;;;;;;5029310;28;20519;-78
2022/09/04 11:24:12;;;;;;;1.63;1.20;;;27.90;85.80;;;;;;5029281;28;20529;-79
2022/09/04 11:27:15;;;;;;;1.27;1.00;;;27.70;90.70;;;;;;5029162;28;20860;-76
2022/09/04 11:30:10;;;;;;;1.30;1.07;;;28.10;84.10;;;;;;5027434;28;20419;-76
2022/09/04 11:32:47;;;;;;;1.10;1.00;;;28.40;86.60;;;;;;5027329;28;20506;-78
2022/09/04 11:35:53;;;;;;;2.73;0.90;;;28.70;82.60;;;;;;5027324;28;20425;-76
2022/09/04 11:38:28;;;;;;;2.13;1.10;;;29.00;78.00;;;;;;5030341;28;20458;-79
2022/09/04 11:41:14;;;;;;;2.17;0.90;;;29.10;79.20;;;;;;5029533;28;20875;-78
2022/09/04 11:43:40;;;;;;;1.30;1.00;;;29.30;78.70;;;;;;5028792;28;20494;-78
2022/09/04 11:46:35;;;;;;;1.37;1.13;;;29.50;76.90;;;;;;5027192;28;20522;-78
2022/09/04 11:49:39;;;;;;;2.40;1.10;;;29.40;77.40;;;;;;5028727;28;20173;-78
2022/09/04 11:52:40;;;;;;;1.53;1.00;;;29.70;76.90;;;;;;5026891;28;20449;-77
2022/09/04 11:55:40;;;;;;;1.90;1.27;;;29.60;76.50;;;;;;5027092;28;20522;-77
2022/09/04 11:58:27;;;;;;;1.70;1.43;;;29.50;74.00;;;;;;5028201;28;20803;-77
2022/09/04 12:01:23;;;;;;;1.10;1.00;;;29.60;73.20;;;;;;5027530;28;20450;-77
2022/09/04 12:04:14;;;;;;;4.20;1.20;;;29.80;76.70;;;;;;5028516;28;20503;-77
2022/09/04 12:07:16;;;;;;;1.43;1.33;;;29.90;75.80;;;;;;5028602;28;20840;-78
2022/09/04 12:10:20;;;;;;;3.30;1.00;;;30.00;76.20;;;;;;5029156;28;20414;-78
2022/09/04 12:13:10;;;;;;;2.13;0.90;;;30.20;72.70;;;;;;5007267;28;20447;-78
2022/09/04 12:15:54;;;;;;;1.87;1.10;;;30.30;72.80;;;;;;5027586;28;20490;-78
2022/09/04 12:18:26;;;;;;;1.90;1.23;;;30.20;72.20;;;;;;5029075;28;20524;-78
2022/09/04 12:21:20;;;;;;;3.00;1.30;;;30.20;70.60;;;;;;5027468;28;21390;-78
2022/09/04 12:23:58;;;;;;;1.27;0.90;;;30.20;72.40;;;;;;5029123;28;20427;-78
2022/09/04 12:26:50;;;;;;;3.83;1.00;;;30.30;71.60;;;;;;5029011;28;20962;-78
2022/09/04 12:29:37;;;;;;;1.13;1.03;;;30.10;71.70;;;;;;5028586;28;20508;-78
2022/09/04 12:32:21;;;;;;;1.10;0.80;;;29.90;73.60;;;;;;5027131;28;20438;-78
2022/09/04 12:34:53;;;;;;;1.30;1.20;;;30.20;72.80;;;;;;5028274;28;20413;-77
2022/09/04 12:37:42;;;;;;;1.00;0.80;;;30.20;72.60;;;;;;5026192;28;20470;-78
2022/09/04 12:40:50;;;;;;;1.30;1.20;;;30.20;72.50;;;;;;5027936;28;20415;-78
2022/09/04 12:43:50;;;;;;;0.90;0.83;;;30.20;72.40;;;;;;5028277;28;20429;-77
2022/09/04 12:46:59;;;;;;;1.00;0.80;;;30.00;72.20;;;;;;5025881;28;20510;-78
2022/09/04 12:49:57;;;;;;;1.63;1.27;;;30.00;70.00;;;;;;5028096;28;20417;-77
2022/09/04 12:52:38;;;;;;;1.87;1.20;;;29.70;71.70;;;;;;5026355;28;20475;-77
2022/09/04 12:55:14;;;;;;;1.90;1.30;;;29.60;73.10;;;;;;5027913;28;20480;-77
2022/09/04 12:57:54;;;;;;;1.37;1.00;;;29.70;71.90;;;;;;5025890;28;20586;-77
2022/09/04 13:00:21;;;;;;;2.73;1.23;;;29.80;71.80;;;;;;5027494;28;20917;-77
2022/09/04 13:03:36;;;;;;;1.47;0.90;;;29.70;70.90;;;;;;5025791;28;20427;-77
2022/09/04 13:06:22;;;;;;;1.10;1.00;;;29.30;72.90;;;;;;4985115;28;20420;-77
2022/09/04 13:08:56;;;;;;;3.93;0.80;;;29.20;73.10;;;;;;4987470;28;20435;-77
2022/09/04 13:11:31;;;;;;;2.07;0.93;;;29.20;73.70;;;;;;5019385;28;20887;-77
2022/09/04 13:14:24;;;;;;;1.10;0.93;;;29.30;73.30;;;;;;5030716;28;20441;-77
2022/09/04 13:17:11;;;;;;;1.37;0.90;;;29.10;68.40;;;;;;5030715;28;20469;-78
2022/09/04 13:19:59;;;;;;;1.43;1.23;;;28.90;70.60;;;;;;5030615;28;20418;-77
2022/09/04 13:22:35;;;;;;;1.30;1.20;;;29.00;72.40;;;;;;5030294;28;20804;-77
2022/09/04 13:25:27;;;;;;;1.23;1.13;;;28.80;72.00;;;;;;5030486;28;20839;-76
2022/09/04 13:28:12;;;;;;;1.57;0.90;;;28.80;75.10;;;;;;5030086;28;20412;-76
2022/09/04 13:30:58;;;;;;;3.00;1.37;;;28.60;73.10;;;;;;5030113;28;20944;-76
2022/09/04 13:33:50;;;;;;;1.50;1.17;;;28.90;72.80;;;;;;5030531;28;20753;-76
2022/09/04 13:36:22;;;;;;;1.47;1.00;;;28.80;73.60;;;;;;5030123;28;20403;-78
2022/09/04 13:39:07;;;;;;;0.97;0.90;;;28.90;72.50;;;;;;5028591;28;20439;-75
2022/09/04 13:42:00;;;;;;;1.20;1.10;;;28.90;71.30;;;;;;5028374;28;20438;-77
2022/09/04 13:44:50;;;;;;;1.37;1.27;;;28.90;73.40;;;;;;5028571;28;20431;-78
2022/09/04 13:47:28;;;;;;;3.63;1.20;;;28.90;76.10;;;;;;5030120;28;20412;-76
2022/09/04 13:50:07;;;;;;;1.93;1.73;;;29.00;74.20;;;;;;5028101;28;20437;-76
2022/09/04 13:52:48;;;;;;;1.77;1.20;;;28.70;72.30;;;;;;5027993;28;20507;-78
2022/09/04 13:55:20;;;;;;;1.77;1.17;;;28.70;73.20;;;;;;5028079;28;20415;-76
2022/09/04 13:58:18;;;;;;;1.30;1.20;;;28.80;73.60;;;;;;5029375;28;20466;-77
2022/09/04 14:00:59;;;;;;;1.50;1.00;;;28.70;71.40;;;;;;5028202;28;20431;-77
2022/09/04 14:03:36;;;;;;;1.53;1.30;;;28.60;71.30;;;;;;5029632;28;20488;-76
2022/09/04 14:06:06;;;;;;;1.40;1.30;;;28.50;72.70;;;;;;5029663;28;20418;-77
2022/09/04 14:08:35;;;;;;;1.37;0.97;;;28.40;73.60;;;;;;5014557;28;20435;-76
2022/09/04 14:11:06;;;;;;;6.07;1.30;;;28.50;74.80;;;;;;5031271;28;20964;-76
2022/09/04 14:14:02;;;;;;;4.70;1.30;;;28.30;75.60;;;;;;5031458;28;20939;-76
2022/09/04 14:16:32;;;;;;;2.13;1.23;;;28.00;76.50;;;;;;5030772;28;20419;-76
2022/09/04 14:19:16;;;;;;;1.90;1.00;;;28.10;76.30;;;;;;5030626;28;20447;-77